Time;durP1;ratioP1;P1;durP2;ratioP2;P2;SDS_P1;SDS_P2;PMS_P1;PMS_P2;Temp;Humidity;BMP_temperature;BMP_pressure;BME280_temperature;BME280_humidity;BME280_pressure;Samples;Min_cycle;Max_cycle;Signal;HPM_P1;HPM_P2
2023/08/16 00:01:46;;;;;;;4.60;2.00;;;;;;;19.36;100.00;101856.38;5077860;28;20741;-67
2023/08/16 00:04:13;;;;;;;3.90;1.80;;;;;;;19.33;100.00;101862.88;5105826;28;20062;-67
2023/08/16 00:06:43;;;;;;;6.28;2.20;;;;;;;19.32;100.00;101858.56;5068361;28;20483;-66
2023/08/16 00:09:09;;;;;;;9.07;4.45;;;;;;;19.25;100.00;101854.97;5098170;28;20059;-67
2023/08/16 00:11:36;;;;;;;5.75;2.78;;;;;;;19.21;100.00;101855.50;5102408;28;20050;-66
2023/08/16 00:14:03;;;;;;;5.05;2.33;;;;;;;19.19;100.00;101857.50;5076426;28;20083;-66
2023/08/16 00:16:29;;;;;;;5.47;1.90;;;;;;;19.13;100.00;101857.22;5093329;28;20511;-66
2023/08/16 00:18:56;;;;;;;2.75;1.70;;;;;;;19.13;100.00;101857.22;5093036;28;20087;-67
2023/08/16 00:21:23;;;;;;;3.95;1.95;;;;;;;19.12;100.00;101852.09;5100964;27;20122;-67
2023/08/16 00:23:49;;;;;;;4.20;1.73;;;;;;;19.12;100.00;101862.72;5096334;27;20121;-66
2023/08/16 00:26:16;;;;;;;4.40;1.65;;;;;;;19.11;100.00;101867.22;5105499;28;20104;-66
2023/08/16 00:28:45;;;;;;;4.00;2.00;;;;;;;19.11;100.00;101858.38;5102571;28;20048;-67
2023/08/16 00:31:11;;;;;;;6.63;1.90;;;;;;;19.13;100.00;101861.69;5083230;28;20056;-66
2023/08/16 00:33:38;;;;;;;4.78;1.85;;;;;;;19.11;100.00;101863.72;5112169;27;20055;-66
2023/08/16 00:36:04;;;;;;;5.65;2.22;;;;;;;19.10;100.00;101867.38;5084019;28;20135;-67
2023/08/16 00:38:31;;;;;;;6.70;2.40;;;;;;;19.01;100.00;101871.09;5107154;28;20044;-67
2023/08/16 00:40:58;;;;;;;2.25;1.45;;;;;;;19.02;100.00;101867.44;5099119;28;20105;-66
2023/08/16 00:43:25;;;;;;;10.00;2.20;;;;;;;19.01;100.00;101863.13;5091013;28;20549;-67
2023/08/16 00:45:52;;;;;;;5.28;1.88;;;;;;;18.98;100.00;101874.94;5072471;28;20307;-66
2023/08/16 00:48:18;;;;;;;5.50;1.73;;;;;;;19.00;100.00;101875.59;5094442;28;20052;-67
2023/08/16 00:50:46;;;;;;;5.00;1.67;;;;;;;19.04;100.00;101884.88;5100580;28;20052;-67
2023/08/16 00:53:16;;;;;;;3.42;2.00;;;;;;;19.08;100.00;101888.84;5088863;28;20142;-66
2023/08/16 00:55:44;;;;;;;5.75;2.92;;;;;;;19.04;100.00;101887.53;5097924;28;20066;-67
2023/08/16 00:58:10;;;;;;;6.73;4.20;;;;;;;19.07;100.00;101889.00;5100870;27;20063;-66
2023/08/16 01:00:37;;;;;;;5.68;2.90;;;;;;;19.05;100.00;101885.69;5109040;28;20047;-65
2023/08/16 01:03:03;;;;;;;3.47;2.28;;;;;;;19.09;100.00;101881.66;5095476;28;20061;-65
2023/08/16 01:05:32;;;;;;;3.22;1.80;;;;;;;19.09;100.00;101879.88;5093289;28;20040;-65
2023/08/16 01:07:59;;;;;;;;;;;;;;;19.12;100.00;101884.81;5097375;28;20217;-65
2023/08/16 01:10:34;;;;;;;2.70;1.57;;;;;;;19.13;100.00;101888.28;5066826;28;19928;-65
2023/08/16 01:13:26;;;;;;;4.20;1.65;;;;;;;19.09;100.00;101876.34;5088786;28;20048;-65
2023/08/16 01:15:55;;;;;;;3.20;1.60;;;;;;;19.12;100.00;101876.00;5083743;27;20060;-65
2023/08/16 01:18:24;;;;;;;4.80;2.00;;;;;;;19.13;100.00;101882.97;5104309;28;20170;-65
2023/08/16 01:20:52;;;;;;;6.38;1.80;;;;;;;19.12;100.00;101886.66;5087879;28;20043;-65
2023/08/16 01:23:37;;;;;;;4.63;1.90;;;;;;;19.17;100.00;101887.78;5098015;28;20102;-65
2023/08/16 01:26:12;;;;;;;4.43;1.83;;;;;;;19.20;100.00;101886.59;5099938;28;20116;-65
2023/08/16 01:28:39;;;;;;;4.13;1.95;;;;;;;19.22;100.00;101887.22;5090919;28;20086;-66
2023/08/16 01:31:06;;;;;;;8.30;2.58;;;;;;;19.19;100.00;101890.28;5100815;27;20052;-65
2023/08/16 01:33:32;;;;;;;6.55;2.30;;;;;;;19.15;100.00;101895.09;5097308;28;20515;-65
2023/08/16 01:35:59;;;;;;;3.63;2.17;;;;;;;19.14;100.00;101906.72;5101437;28;20051;-65
2023/08/16 01:38:26;;;;;;;4.85;2.70;;;;;;;19.11;100.00;101906.25;5090811;28;20120;-65
2023/08/16 01:41:10;;;;;;;4.18;2.47;;;;;;;19.14;100.00;101911.22;5092661;28;20486;-66
2023/08/16 01:43:37;;;;;;;4.93;2.60;;;;;;;19.11;100.00;101916.88;5093192;28;20492;-65
2023/08/16 01:46:04;;;;;;;5.50;2.65;;;;;;;19.11;100.00;101916.88;5095851;28;20519;-65
2023/08/16 01:48:32;;;;;;;4.60;2.33;;;;;;;19.11;100.00;101919.56;5101361;28;20051;-65
2023/08/16 01:50:59;;;;;;;4.20;2.20;;;;;;;19.10;100.00;101912.59;5091617;28;20508;-65
2023/08/16 01:53:25;;;;;;;5.18;2.10;;;;;;;19.11;100.00;101912.44;5082671;28;20047;-65
2023/08/16 01:55:52;;;;;;;4.88;2.08;;;;;;;19.09;100.00;101914.44;5084322;28;20131;-65
2023/08/16 01:58:18;;;;;;;4.30;2.25;;;;;;;19.06;100.00;101922.75;5095781;28;20105;-65
2023/08/16 02:00:45;;;;;;;9.15;1.95;;;;;;;19.04;100.00;101921.28;5088257;28;20094;-65
2023/08/16 02:03:11;;;;;;;7.40;2.15;;;;;;;19.05;100.00;101914.94;5073631;28;20043;-65
2023/08/16 02:05:38;;;;;;;4.32;2.13;;;;;;;19.04;100.00;101908.81;5095049;28;20048;-65
2023/08/16 02:08:04;;;;;;;5.30;2.40;;;;;;;19.08;100.00;101911.94;5085846;27;20505;-65
2023/08/16 02:10:31;;;;;;;6.75;2.50;;;;;;;19.11;100.00;101903.59;5091695;28;20052;-65
2023/08/16 02:12:57;;;;;;;6.22;2.55;;;;;;;19.13;100.00;101899.78;5083009;28;20472;-65
2023/08/16 02:15:25;;;;;;;5.53;2.10;;;;;;;19.13;100.00;101898.94;5090305;28;20075;-66
2023/08/16 02:17:51;;;;;;;5.28;2.58;;;;;;;19.12;100.00;101891.97;5085882;28;20072;-66
2023/08/16 02:20:18;;;;;;;5.93;2.20;;;;;;;19.10;100.00;101900.13;5082729;28;20044;-66
2023/08/16 02:22:44;;;;;;;8.95;2.20;;;;;;;19.10;100.00;101897.47;5091269;28;20075;-67
2023/08/16 02:25:11;;;;;;;6.03;2.15;;;;;;;19.05;100.00;101899.84;5089504;28;20160;-67
2023/08/16 02:27:38;;;;;;;7.70;2.17;;;;;;;19.08;100.00;101903.97;5089556;28;20043;-67
2023/08/16 02:30:06;;;;;;;7.55;2.42;;;;;;;19.07;100.00;101894.31;5083001;28;20455;-66
2023/08/16 02:32:33;;;;;;;8.43;2.45;;;;;;;19.01;100.00;101887.06;5092651;27;20052;-67
2023/08/16 02:34:59;;;;;;;6.40;2.67;;;;;;;18.98;100.00;101908.69;5095194;28;20078;-66
2023/08/16 02:37:26;;;;;;;7.45;2.60;;;;;;;19.01;100.00;101906.47;5085876;28;20044;-67
2023/08/16 02:39:52;;;;;;;5.90;2.33;;;;;;;19.00;100.00;101904.84;5104376;28;20044;-66
2023/08/16 02:42:19;;;;;;;6.78;2.47;;;;;;;19.00;100.00;101907.50;5085495;28;20048;-66
2023/08/16 02:44:46;;;;;;;6.18;2.58;;;;;;;18.99;100.00;101907.66;5088182;28;20048;-67
2023/08/16 02:47:12;;;;;;;5.20;2.20;;;;;;;19.02;100.00;101905.50;5092266;28;20039;-66
2023/08/16 02:49:38;;;;;;;4.05;2.15;;;;;;;19.03;100.00;101908.97;5088765;28;20048;-66
2023/08/16 02:52:05;;;;;;;4.07;2.28;;;;;;;19.01;100.00;101917.13;5092399;28;20074;-66
2023/08/16 02:54:31;;;;;;;3.42;2.10;;;;;;;18.99;100.00;101919.13;5097398;28;20039;-66
2023/08/16 02:56:58;;;;;;;4.72;2.20;;;;;;;19.00;100.00;101914.66;5092528;28;20044;-66
2023/08/16 02:59:25;;;;;;;7.20;2.45;;;;;;;18.97;100.00;101915.81;5086148;28;20106;-66
2023/08/16 03:01:51;;;;;;;4.85;2.00;;;;;;;18.97;100.00;101921.13;5107488;28;20082;-67
2023/08/16 03:04:17;;;;;;;6.82;2.10;;;;;;;18.94;100.00;101922.31;5094589;28;20052;-67
2023/08/16 03:06:44;;;;;;;6.30;2.60;;;;;;;18.90;100.00;101917.53;5087085;28;20048;-68
2023/08/16 03:09:10;;;;;;;4.43;2.05;;;;;;;18.90;100.00;101918.34;5085054;28;20044;-66
2023/08/16 03:11:37;;;;;;;8.52;2.33;;;;;;;18.88;100.00;101917.72;5083495;28;20043;-66
2023/08/16 03:14:04;;;;;;;6.05;2.40;;;;;;;18.86;100.00;101916.22;5103042;28;20125;-66
2023/08/16 03:16:30;;;;;;;7.30;2.35;;;;;;;18.81;100.00;101915.91;5090731;28;20135;-67
2023/08/16 03:18:58;;;;;;;5.85;2.33;;;;;;;18.78;100.00;101917.06;5089400;28;20055;-66
2023/08/16 03:21:24;;;;;;;6.82;2.20;;;;;;;18.74;100.00;101915.75;5091343;28;20063;-66
2023/08/16 03:23:51;;;;;;;3.88;2.03;;;;;;;18.71;100.00;101905.47;5083904;28;20523;-66
2023/08/16 03:26:17;;;;;;;11.27;2.33;;;;;;;18.64;100.00;101905.34;5093987;28;20050;-67
2023/08/16 03:28:44;;;;;;;6.40;2.42;;;;;;;18.63;100.00;101914.31;5089071;28;20079;-66
2023/08/16 03:31:10;;;;;;;4.93;2.33;;;;;;;18.57;100.00;101921.13;5086654;28;20655;-67
2023/08/16 03:33:37;;;;;;;3.80;2.10;;;;;;;18.56;100.00;101919.50;5081142;28;20058;-67
2023/08/16 03:36:03;;;;;;;5.15;2.20;;;;;;;18.51;100.00;101926.31;5098313;28;20079;-66
2023/08/16 03:38:30;;;;;;;6.07;2.00;;;;;;;18.46;100.00;101926.00;5094876;28;20126;-66
2023/08/16 03:40:56;;;;;;;4.38;2.38;;;;;;;18.48;100.00;101924.81;5098587;27;20083;-66
2023/08/16 03:43:23;;;;;;;5.15;2.65;;;;;;;18.54;100.00;101924.16;5097778;28;20051;-66
2023/08/16 03:45:50;;;;;;;7.28;2.50;;;;;;;18.58;100.00;101924.63;5097558;27;20082;-67
2023/08/16 03:48:16;;;;;;;9.10;3.08;;;;;;;18.57;100.00;101918.47;5096299;28;20142;-67
2023/08/16 03:50:43;;;;;;;9.57;3.70;;;;;;;18.62;100.00;101923.28;5094143;28;20428;-66
2023/08/16 03:53:11;;;;;;;9.30;3.50;;;;;;;18.63;100.00;101929.44;5082836;28;20059;-66
2023/08/16 03:55:37;;;;;;;9.52;4.00;;;;;;;18.64;100.00;101925.75;5099530;28;20446;-66
2023/08/16 03:58:04;;;;;;;10.23;3.80;;;;;;;18.64;100.00;101931.06;5082593;28;20137;-66
2023/08/16 04:00:30;;;;;;;6.50;3.58;;;;;;;18.66;100.00;101929.91;5080732;28;20047;-66
2023/08/16 04:02:57;;;;;;;8.38;3.33;;;;;;;18.69;100.00;101939.38;5099175;28;20409;-66
2023/08/16 04:05:23;;;;;;;9.50;3.33;;;;;;;18.66;100.00;101932.56;5106341;28;20491;-67
2023/08/16 04:07:50;;;;;;;5.70;2.63;;;;;;;18.67;100.00;101944.84;5080421;28;20087;-67
2023/08/16 04:10:16;;;;;;;6.65;2.50;;;;;;;18.66;100.00;101948.53;5099735;28;20291;-67
2023/08/16 04:12:43;;;;;;;6.35;2.78;;;;;;;18.64;100.00;101942.56;5091085;28;20105;-67
2023/08/16 04:15:09;;;;;;;8.60;3.03;;;;;;;18.66;100.00;101956.50;5084726;28;20146;-67
2023/08/16 04:17:36;;;;;;;6.65;3.22;;;;;;;18.65;100.00;101954.00;5094497;28;20043;-66
2023/08/16 04:20:05;;;;;;;9.73;3.22;;;;;;;18.64;100.00;101952.31;5094948;28;20052;-67
2023/08/16 04:22:32;;;;;;;7.25;3.30;;;;;;;18.67;100.00;101954.66;5099312;28;20079;-66
2023/08/16 04:24:58;;;;;;;9.68;3.45;;;;;;;18.67;100.00;101952.00;5080551;28;20048;-67
2023/08/16 04:27:26;;;;;;;7.35;4.30;;;;;;;18.67;100.00;101941.38;5106105;28;20047;-66
2023/08/16 04:29:52;;;;;;;12.10;5.47;;;;;;;18.69;100.00;101934.88;5089058;28;20503;-66
2023/08/16 04:32:19;;;;;;;11.75;5.75;;;;;;;18.71;100.00;101929.38;5106700;28;20086;-66
2023/08/16 04:34:45;;;;;;;11.88;5.82;;;;;;;18.70;100.00;101931.22;5093397;28;20467;-66
2023/08/16 04:37:12;;;;;;;10.98;5.63;;;;;;;18.66;100.00;101937.03;5093480;28;20549;-66
2023/08/16 04:39:38;;;;;;;10.85;5.47;;;;;;;18.66;100.00;101950.31;5087219;28;20403;-67
2023/08/16 04:42:04;;;;;;;12.55;5.38;;;;;;;18.63;100.00;101950.69;5089334;28;20511;-67
2023/08/16 04:44:31;;;;;;;14.30;6.13;;;;;;;18.63;100.00;101948.84;5080639;28;20079;-66
2023/08/16 04:46:57;;;;;;;10.68;5.32;;;;;;;18.61;100.00;101952.69;5098207;28;20079;-67
2023/08/16 04:49:26;;;;;;;13.60;5.90;;;;;;;18.58;100.00;101954.69;5092753;28;20047;-67
2023/08/16 04:51:53;;;;;;;13.65;4.78;;;;;;;18.57;100.00;101952.19;5095224;28;20514;-66
2023/08/16 04:54:20;;;;;;;11.13;5.70;;;;;;;18.54;100.00;101950.72;5097289;28;20101;-66
2023/08/16 04:56:48;;;;;;;11.02;5.53;;;;;;;18.54;100.00;101952.53;5099203;28;20040;-66
2023/08/16 04:59:15;;;;;;;10.02;4.85;;;;;;;18.48;100.00;101955.88;5096887;28;20071;-67
2023/08/16 05:01:41;;;;;;;10.25;4.20;;;;;;;18.43;100.00;101950.25;5102153;28;20044;-66
2023/08/16 05:04:09;;;;;;;9.75;4.53;;;;;;;18.43;100.00;101952.91;5091152;28;20370;-66
2023/08/16 05:06:36;;;;;;;6.87;3.93;;;;;;;18.43;100.00;101958.22;5109240;28;20044;-67
2023/08/16 05:09:04;;;;;;;7.50;3.77;;;;;;;18.39;100.00;101963.06;5101569;28;20060;-67
2023/08/16 05:11:30;;;;;;;5.27;3.13;;;;;;;18.35;100.00;101970.53;5082618;28;20060;-67
2023/08/16 05:13:57;;;;;;;7.07;3.30;;;;;;;18.33;100.00;101977.03;5096788;28;20039;-67
2023/08/16 05:16:24;;;;;;;6.70;3.88;;;;;;;18.35;100.00;101983.81;5087676;27;20382;-67
2023/08/16 05:18:52;;;;;;;8.98;3.65;;;;;;;18.37;100.00;101994.28;5097197;28;20051;-66
2023/08/16 05:21:19;;;;;;;8.75;3.45;;;;;;;18.36;100.00;101987.28;5098413;28;20051;-67
2023/08/16 05:23:46;;;;;;;8.40;3.38;;;;;;;18.37;100.00;101988.97;5101512;28;20048;-66
2023/08/16 05:26:12;;;;;;;7.35;3.58;;;;;;;18.36;100.00;101997.91;5093463;28;20499;-67
2023/08/16 05:28:38;;;;;;;8.40;3.50;;;;;;;18.33;100.00;101999.09;5090191;28;20903;-66
2023/08/16 05:31:09;;;;;;;8.45;3.33;;;;;;;18.38;100.00;101999.41;5092732;28;20051;-67
2023/08/16 05:33:37;;;;;;;9.20;3.60;;;;;;;18.44;100.00;101999.72;5097230;28;20138;-67
2023/08/16 05:36:05;;;;;;;;;;;;;;;18.51;100.00;102008.69;5101428;28;20043;-66
2023/08/16 05:38:32;;;;;;;9.13;4.10;;;;;;;18.52;100.00;102008.53;5096967;27;19919;-67
2023/08/16 05:40:59;;;;;;;11.10;5.05;;;;;;;18.55;100.00;102002.03;5088407;28;20520;-66
2023/08/16 05:43:25;;;;;;;10.95;5.07;;;;;;;18.60;100.00;102002.31;5099905;28;20062;-67
2023/08/16 05:45:52;;;;;;;12.02;5.25;;;;;;;18.63;100.00;101999.34;5069650;28;20050;-66
2023/08/16 05:48:18;;;;;;;12.65;6.13;;;;;;;18.67;100.00;101999.84;5098811;28;20052;-67
2023/08/16 05:50:44;;;;;;;15.65;6.20;;;;;;;18.69;100.00;101997.84;5095559;28;20075;-67
2023/08/16 05:53:11;;;;;;;15.40;4.90;;;;;;;18.73;100.00;101999.97;5092342;28;20079;-66
2023/08/16 05:55:37;;;;;;;10.07;4.97;;;;;;;18.78;100.00;101988.84;5091615;28;20138;-66
2023/08/16 05:58:04;;;;;;;9.23;4.63;;;;;;;18.83;100.00;101989.16;5081737;28;20068;-67
2023/08/16 06:00:31;;;;;;;10.77;4.13;;;;;;;18.88;100.00;101986.00;5113476;27;20144;-66
2023/08/16 06:02:58;;;;;;;9.48;3.92;;;;;;;18.95;100.00;101992.25;5090537;28;20106;-66
2023/08/16 06:05:25;;;;;;;9.65;3.65;;;;;;;18.97;100.00;101992.91;5096782;28;20169;-66
2023/08/16 06:07:51;;;;;;;11.13;4.45;;;;;;;19.06;100.00;101994.53;5072818;28;20048;-66
2023/08/16 06:10:18;;;;;;;10.85;4.00;;;;;;;19.11;100.00;102002.84;5089598;28;20126;-67
2023/08/16 06:12:44;;;;;;;11.02;4.40;;;;;;;19.19;100.00;101998.47;5080058;28;20048;-66
2023/08/16 06:15:14;;;;;;;9.82;4.40;;;;;;;19.23;100.00;102007.75;5090290;28;20055;-66
2023/08/16 06:17:41;;;;;;;12.60;4.53;;;;;;;19.27;100.00;102001.91;5108153;28;20132;-67
2023/08/16 06:20:09;;;;;;;6.10;3.55;;;;;;;19.32;100.00;102001.38;5096210;28;20142;-67
2023/08/16 06:22:37;;;;;;;8.73;3.42;;;;;;;19.35;100.00;102001.03;5094442;28;20079;-67
2023/08/16 06:25:05;;;;;;;8.75;3.60;;;;;;;19.40;100.00;102006.66;5092226;27;20052;-67
2023/08/16 06:27:32;;;;;;;8.35;3.15;;;;;;;19.45;100.00;102012.28;5092714;28;20052;-67
2023/08/16 06:30:00;;;;;;;8.75;2.90;;;;;;;19.48;100.00;102014.59;5090956;28;20052;-67
2023/08/16 06:32:27;;;;;;;7.53;2.75;;;;;;;19.53;100.00;102020.22;5094066;28;20083;-67
2023/08/16 06:34:53;;;;;;;9.60;3.13;;;;;;;19.51;100.00;102018.72;5086233;28;20094;-66
2023/08/16 06:37:20;;;;;;;7.57;3.10;;;;;;;19.60;100.00;102027.47;5092261;27;20051;-67
2023/08/16 06:39:48;;;;;;;6.47;2.70;;;;;;;19.59;100.00;102020.50;5108480;27;20084;-66
2023/08/16 06:42:15;;;;;;;6.68;2.72;;;;;;;19.68;100.00;102016.78;5068995;28;20048;-67
2023/08/16 06:44:41;;;;;;;8.88;3.13;;;;;;;19.74;100.00;102034.75;5099323;28;20055;-66
2023/08/16 06:47:07;;;;;;;6.38;3.00;;;;;;;19.78;100.00;102029.88;5092979;28;20052;-66
2023/08/16 06:49:34;;;;;;;10.10;3.42;;;;;;;19.84;100.00;102027.34;5087211;28;20047;-67
2023/08/16 06:52:00;;;;;;;7.57;3.90;;;;;;;19.88;100.00;102027.81;5098561;28;20074;-67
2023/08/16 06:54:27;;;;;;;7.18;3.33;;;;;;;19.93;100.00;102028.09;5085079;28;20481;-67
2023/08/16 06:56:57;;;;;;;7.82;3.10;;;;;;;20.01;100.00;102035.19;5100445;28;20043;-67
2023/08/16 06:59:27;;;;;;;6.85;3.30;;;;;;;20.10;100.00;102031.47;5082611;28;20523;-67
2023/08/16 07:01:53;;;;;;;8.20;2.75;;;;;;;20.11;100.00;102033.09;5080552;28;20211;-67
2023/08/16 07:04:20;;;;;;;8.52;2.78;;;;;;;20.18;100.00;102047.38;5081040;28;20048;-67
2023/08/16 07:06:46;;;;;;;7.32;2.60;;;;;;;20.24;100.00;102043.16;5084399;27;20898;-67
2023/08/16 07:09:13;;;;;;;7.47;2.75;;;;;;;20.30;100.00;102040.59;5106026;27;20531;-66
2023/08/16 07:11:39;;;;;;;6.22;2.63;;;;;;;20.29;100.00;102046.13;5076115;27;20060;-67
2023/08/16 07:14:06;;;;;;;6.03;2.80;;;;;;;20.33;100.00;102040.22;5091611;28;20775;-67
2023/08/16 07:16:33;;;;;;;6.13;2.75;;;;;;;20.41;100.00;102049.16;5090474;27;20044;-66
2023/08/16 07:19:00;;;;;;;8.45;2.80;;;;;;;20.46;100.00;102052.09;5103925;27;20062;-67
2023/08/16 07:21:26;;;;;;;6.45;3.03;;;;;;;20.50;100.00;102051.56;5102771;27;20166;-67
2023/08/16 07:23:53;;;;;;;9.40;2.72;;;;;;;20.56;100.00;102049.97;5105243;27;20471;-66
2023/08/16 07:26:19;;;;;;;5.82;2.25;;;;;;;20.61;100.00;102052.16;5103329;28;20146;-65
2023/08/16 07:28:45;;;;;;;7.53;3.20;;;;;;;20.59;100.00;102052.31;5099473;27;20100;-65
2023/08/16 07:31:12;;;;;;;7.82;3.00;;;;;;;20.61;100.00;102046.81;5092792;27;20047;-65
2023/08/16 07:33:41;;;;;;;9.70;2.92;;;;;;;20.61;100.00;102046.81;5093036;27;20051;-66
2023/08/16 07:36:07;;;;;;;6.65;2.83;;;;;;;20.67;100.00;102051.41;5106489;27;20062;-66
2023/08/16 07:38:34;;;;;;;7.05;2.88;;;;;;;20.74;100.00;102050.50;5103398;27;20452;-65
2023/08/16 07:41:00;;;;;;;5.68;2.58;;;;;;;20.81;100.00;102050.56;5113232;27;20166;-65
2023/08/16 07:43:30;;;;;;;6.80;2.80;;;;;;;20.86;100.00;102045.53;5105885;27;20089;-66
2023/08/16 07:45:57;;;;;;;11.30;2.88;;;;;;;20.90;100.00;102043.31;5083436;27;20056;-65
2023/08/16 07:48:23;;;;;;;6.97;2.85;;;;;;;20.99;100.00;102036.03;5103343;28;20731;-66
2023/08/16 07:50:50;;;;;;;6.05;2.60;;;;;;;21.04;100.00;102033.66;5093889;27;20165;-66
2023/08/16 07:53:17;;;;;;;7.50;2.80;;;;;;;21.07;100.00;102034.09;5110354;27;20411;-65
2023/08/16 07:55:43;;;;;;;8.93;2.80;;;;;;;21.18;100.00;102030.13;5099459;28;20764;-66
2023/08/16 07:58:10;;;;;;;6.35;2.65;;;;;;;21.24;100.00;102034.69;5107487;28;20075;-66
2023/08/16 08:00:36;;;;;;;7.20;2.70;;;;;;;21.26;100.00;102042.53;5095972;28;20060;-66
2023/08/16 08:03:05;;;;;;;6.15;2.97;;;;;;;21.31;100.00;102048.13;5099234;28;20051;-66
2023/08/16 08:05:31;;;;;;;6.88;2.83;;;;;;;21.40;100.00;102052.31;5096682;28;20047;-67
2023/08/16 08:08:00;;;;;;;4.30;2.15;;;;;;;21.35;100.00;102051.25;5106328;27;20884;-66
2023/08/16 08:10:29;;;;;;;6.88;2.53;;;;;;;21.43;100.00;102053.81;5103375;28;20075;-66
2023/08/16 08:12:55;;;;;;;5.55;2.40;;;;;;;21.51;100.00;102057.22;5100686;27;20047;-67
2023/08/16 08:15:22;;;;;;;7.85;2.58;;;;;;;21.58;100.00;102056.44;5096949;28;20130;-66
2023/08/16 08:17:48;;;;;;;4.88;2.03;;;;;;;21.71;100.00;102053.91;5111370;28;20041;-66
2023/08/16 08:20:15;;;;;;;6.80;2.30;;;;;;;21.84;100.00;102050.56;5095402;28;20658;-67
2023/08/16 08:22:42;;;;;;;7.03;2.20;;;;;;;21.90;100.00;102063.97;5110601;28;20047;-67
2023/08/16 08:25:08;;;;;;;6.65;2.25;;;;;;;21.97;100.00;102058.66;5102983;27;20138;-67
2023/08/16 08:27:36;;;;;;;6.68;2.08;;;;;;;22.15;100.00;102063.56;5098226;27;20122;-66
2023/08/16 08:30:03;;;;;;;4.00;2.03;;;;;;;22.21;100.00;102067.28;5101429;27;20047;-67
2023/08/16 08:32:29;;;;;;;7.35;2.20;;;;;;;22.27;100.00;102062.06;5110338;27;20293;-67
2023/08/16 08:34:56;;;;;;;5.72;2.10;;;;;;;22.40;98.60;102069.31;5106001;28;20404;-67
2023/08/16 08:37:22;;;;;;;6.72;2.28;;;;;;;22.44;97.96;102073.28;5099658;27;20039;-66
2023/08/16 08:39:49;;;;;;;8.35;2.30;;;;;;;22.58;96.18;102063.50;5105477;27;20079;-66
2023/08/16 08:42:16;;;;;;;5.05;2.15;;;;;;;22.68;97.00;102065.84;5101237;27;20462;-67
2023/08/16 08:44:43;;;;;;;8.52;2.75;;;;;;;22.82;97.27;102064.88;5104498;28;20071;-67
2023/08/16 08:47:10;;;;;;;5.20;2.50;;;;;;;23.03;92.71;102065.81;5098300;27;20083;-66
2023/08/16 08:49:43;;;;;;;6.25;2.40;;;;;;;23.19;94.75;102075.34;5120153;27;20039;-67
2023/08/16 08:52:10;;;;;;;10.77;2.90;;;;;;;23.30;95.53;102082.81;5106812;27;20051;-67
2023/08/16 08:54:37;;;;;;;7.80;3.90;;;;;;;23.43;91.09;102079.34;5092642;28;20051;-67
2023/08/16 08:57:05;;;;;;;9.73;3.30;;;;;;;23.62;91.54;102086.63;5101899;27;20058;-68
2023/08/16 08:59:34;;;;;;;9.60;2.95;;;;;;;23.78;89.78;102087.31;5100284;27;20043;-67
2023/08/16 09:02:01;;;;;;;7.95;3.42;;;;;;;23.86;88.08;102090.59;5108563;27;20424;-67
2023/08/16 09:04:30;;;;;;;6.10;2.93;;;;;;;24.02;87.40;102100.09;5115384;27;20086;-69
2023/08/16 09:06:59;;;;;;;7.55;2.88;;;;;;;24.22;85.39;102104.63;5105399;27;20059;-67
2023/08/16 09:09:26;;;;;;;8.63;2.72;;;;;;;24.34;85.34;102092.25;5099446;28;20043;-66
2023/08/16 09:11:53;;;;;;;7.18;2.92;;;;;;;24.48;83.35;102083.19;5095961;27;20059;-67
2023/08/16 09:14:19;;;;;;;7.15;3.08;;;;;;;24.66;81.01;102087.91;5114482;27;20124;-68
2023/08/16 09:16:46;;;;;;;6.82;3.20;;;;;;;24.73;80.19;102082.53;5104092;27;20051;-67
2023/08/16 09:19:13;;;;;;;7.18;2.88;;;;;;;24.86;81.45;102095.09;5107866;27;20071;-67
2023/08/16 09:21:43;;;;;;;9.02;3.30;;;;;;;24.94;80.56;102084.13;5076363;28;20051;-67
2023/08/16 09:24:10;;;;;;;5.50;2.50;;;;;;;25.01;80.75;102087.63;5086057;28;20083;-67
2023/08/16 09:26:37;;;;;;;7.55;2.78;;;;;;;25.20;79.76;102085.06;5095149;28;20089;-67
2023/08/16 09:29:03;;;;;;;8.38;3.00;;;;;;;25.34;76.89;102083.97;5080387;28;20056;-67
2023/08/16 09:31:37;;;;;;;8.57;3.97;;;;;;;25.48;74.44;102090.09;5089551;28;20130;-67
2023/08/16 09:34:05;;;;;;;10.38;3.50;;;;;;;25.37;74.07;102085.44;5083241;28;20105;-68
2023/08/16 09:36:35;;;;;;;6.85;2.80;;;;;;;25.59;74.10;102073.31;5097941;28;20055;-67
2023/08/16 09:39:07;;;;;;;5.97;2.50;;;;;;;25.68;74.11;102078.41;5094159;28;20082;-67
2023/08/16 09:41:33;;;;;;;6.20;2.53;;;;;;;25.78;72.58;102081.47;5085084;28;20097;-67
2023/08/16 09:44:08;;;;;;;6.55;2.45;;;;;;;25.87;72.46;102072.06;5092390;28;20098;-67
2023/08/16 09:46:35;;;;;;;5.72;2.20;;;;;;;26.04;71.35;102064.34;5093988;28;20510;-67
2023/08/16 09:49:23;;;;;;;6.85;2.67;;;;;;;26.16;69.34;102075.19;5095560;28;20062;-67
2023/08/16 09:51:51;;;;;;;4.85;2.42;;;;;;;26.33;70.43;102067.41;5081352;28;20537;-67
2023/08/16 09:54:23;;;;;;;7.60;2.47;;;;;;;26.39;69.25;102061.13;5099159;28;20052;-67
2023/08/16 09:56:50;;;;;;;5.15;2.70;;;;;;;26.44;66.23;102063.94;5101711;28;20050;-67
2023/08/16 09:59:20;;;;;;;5.63;2.20;;;;;;;26.48;68.40;102053.56;5094485;28;20487;-67
2023/08/16 10:01:49;;;;;;;4.85;2.28;;;;;;;26.52;68.00;102061.00;5107005;28;20128;-67
2023/08/16 10:04:21;;;;;;;5.65;2.60;;;;;;;26.71;66.07;102059.16;5097534;28;20086;-67
2023/08/16 10:07:08;;;;;;;6.45;2.83;;;;;;;26.79;68.28;102063.41;5102324;28;20058;-67
2023/08/16 10:09:40;;;;;;;8.02;2.67;;;;;;;26.74;64.42;102061.41;5101220;28;20059;-68
2023/08/16 10:12:08;;;;;;;6.40;3.05;;;;;;;26.68;64.10;102051.53;5106323;28;20074;-67
2023/08/16 10:14:37;;;;;;;5.40;2.40;;;;;;;26.81;65.98;102058.63;5088113;28;20420;-66
2023/08/16 10:17:08;;;;;;;6.00;2.53;;;;;;;26.90;65.49;102054.59;5100091;28;20667;-68
2023/08/16 10:19:37;;;;;;;5.80;2.97;;;;;;;27.03;64.57;102053.56;5088453;28;20680;-67
2023/08/16 10:22:27;;;;;;;7.50;2.80;;;;;;;27.23;65.72;102053.34;5105808;28;20051;-68
2023/08/16 10:25:06;;;;;;;6.88;2.20;;;;;;;27.51;64.88;102060.84;5106902;28;20480;-68
2023/08/16 10:27:34;;;;;;;8.15;2.60;;;;;;;27.67;63.59;102053.16;5090247;28;20044;-68
2023/08/16 10:30:04;;;;;;;5.88;2.05;;;;;;;27.86;61.12;102048.50;5107511;28;20047;-67
2023/08/16 10:32:38;;;;;;;4.70;2.00;;;;;;;27.98;60.32;102052.06;5077307;28;20085;-67
2023/08/16 10:35:07;;;;;;;5.45;2.22;;;;;;;27.97;60.41;102053.94;5084132;28;20047;-67
2023/08/16 10:37:34;;;;;;;7.78;2.30;;;;;;;27.94;58.87;102046.28;5095218;28;20055;-67
2023/08/16 10:40:19;;;;;;;10.77;2.53;;;;;;;27.95;59.47;102055.19;5096180;28;20052;-68
2023/08/16 10:42:58;;;;;;;4.93;2.38;;;;;;;27.83;59.15;102052.47;5097922;28;20100;-67
2023/08/16 10:45:27;;;;;;;6.28;1.80;;;;;;;27.80;61.29;102058.34;5093846;28;20729;-67
2023/08/16 10:48:17;;;;;;;6.20;2.17;;;;;;;27.92;59.14;102053.81;5084658;28;20492;-67
2023/08/16 10:50:53;;;;;;;4.80;1.95;;;;;;;28.09;58.43;102053.09;5096697;28;20668;-67
2023/08/16 10:53:23;;;;;;;6.78;2.05;;;;;;;28.10;56.92;102057.44;5097442;28;20079;-67
2023/08/16 10:55:52;;;;;;;5.00;1.88;;;;;;;28.29;58.46;102063.56;5091073;28;20051;-67
2023/08/16 10:58:21;;;;;;;5.43;1.80;;;;;;;28.56;58.61;102063.88;5097820;28;20129;-67
2023/08/16 11:00:59;;;;;;;5.20;1.90;;;;;;;28.73;60.05;102066.69;5093247;28;20107;-68
2023/08/16 11:03:31;;;;;;;5.75;2.15;;;;;;;28.79;56.52;102061.19;5083043;28;20047;-67
2023/08/16 11:06:07;;;;;;;6.25;1.85;;;;;;;28.99;56.35;102063.47;5090826;28;20412;-67
2023/08/16 11:08:33;;;;;;;4.70;1.83;;;;;;;29.24;55.74;102075.81;5099210;28;20484;-67
2023/08/16 11:11:01;;;;;;;4.45;1.88;;;;;;;29.29;54.10;102069.72;5089820;28;20398;-67
2023/08/16 11:13:28;;;;;;;9.55;2.35;;;;;;;29.26;53.08;102068.28;5095469;28;20672;-67
2023/08/16 11:15:59;;;;;;;5.50;1.95;;;;;;;29.37;55.40;102070.13;5081084;28;20151;-67
2023/08/16 11:18:28;;;;;;;6.90;2.00;;;;;;;29.51;52.81;102051.72;5063691;28;20069;-67
2023/08/16 11:21:00;;;;;;;7.32;1.73;;;;;;;29.63;53.84;102065.16;5100040;28;20194;-67
2023/08/16 11:23:38;;;;;;;6.05;2.08;;;;;;;29.62;52.15;102060.00;5093614;28;20105;-68